Time;durP1;ratioP1;P1;durP2;ratioP2;P2;SDS_P1;SDS_P2;PMS_P1;PMS_P2;Temp;Humidity;BMP_temperature;BMP_pressure;BME280_temperature;BME280_humidity;BME280_pressure;Samples;Min_cycle;Max_cycle;Signal;HPM_P1;HPM_P2
2022/10/21 00:00:55;;;;;;;18.45;11.60;;;14.40;99.90;;;;;;5052994;28;20370;-75
2022/10/21 00:03:23;;;;;;;16.45;10.70;;;14.40;99.90;;;;;;5053098;28;20355;-76
2022/10/21 00:05:49;;;;;;;20.85;10.93;;;14.40;99.90;;;;;;5052886;28;20112;-77
2022/10/21 00:08:16;;;;;;;21.27;11.77;;;14.50;99.90;;;;;;5053051;28;20025;-80
2022/10/21 00:10:41;;;;;;;19.90;11.02;;;14.50;99.90;;;;;;5053090;28;20119;-79
2022/10/21 00:13:07;;;;;;;19.88;10.63;;;14.50;99.90;;;;;;5053393;28;20124;-78
2022/10/21 00:15:33;;;;;;;22.50;11.82;;;14.50;99.90;;;;;;5052864;28;20552;-79
2022/10/21 00:17:59;;;;;;;20.33;10.48;;;14.50;99.90;;;;;;5051903;28;20566;-78
2022/10/21 00:20:25;;;;;;;22.23;10.77;;;14.50;99.90;;;;;;5052382;28;20112;-75
2022/10/21 00:22:50;;;;;;;18.67;10.63;;;14.50;99.90;;;;;;5051437;28;20029;-78
2022/10/21 00:25:16;;;;;;;19.38;11.40;;;14.50;99.90;;;;;;5052125;28;20036;-79
2022/10/21 00:27:42;;;;;;;24.15;12.68;;;14.50;99.90;;;;;;5052470;28;20032;-76
2022/10/21 00:30:08;;;;;;;17.63;11.55;;;14.50;99.90;;;;;;5052843;28;20436;-76
2022/10/21 00:32:34;;;;;;;22.08;11.07;;;14.50;99.90;;;;;;5052669;28;20021;-75
2022/10/21 00:34:59;;;;;;;18.23;10.38;;;14.50;99.90;;;;;;5052738;28;20466;-77
2022/10/21 00:37:27;;;;;;;22.17;11.73;;;14.50;99.90;;;;;;5052537;28;20029;-77
2022/10/21 00:39:53;;;;;;;24.98;11.30;;;14.50;99.90;;;;;;5052183;28;20100;-77
2022/10/21 00:42:21;;;;;;;19.67;11.05;;;14.50;99.90;;;;;;5051057;28;20091;-77
2022/10/21 00:45:05;;;;;;;21.63;10.70;;;14.50;99.90;;;;;;5051013;28;20032;-79
2022/10/21 00:47:45;;;;;;;17.95;10.88;;;14.50;99.90;;;;;;5051772;28;20094;-78
2022/10/21 00:50:35;;;;;;;27.25;11.27;;;14.50;99.90;;;;;;5052272;28;20451;-77
2022/10/21 00:53:03;;;;;;;21.17;10.55;;;14.60;99.90;;;;;;5052217;28;20111;-78
2022/10/21 00:55:33;;;;;;;21.35;11.10;;;14.60;99.90;;;;;;5067205;28;20030;-78
2022/10/21 00:58:01;;;;;;;20.73;11.15;;;14.60;99.90;;;;;;5051686;28;20025;-78
2022/10/21 01:00:26;;;;;;;18.60;10.82;;;14.60;99.90;;;;;;5051999;28;20036;-77
2022/10/21 01:02:52;;;;;;;17.90;10.10;;;14.70;99.90;;;;;;5051309;28;20097;-76
2022/10/21 01:05:19;;;;;;;20.90;9.57;;;14.70;99.90;;;;;;5067517;28;20390;-78
2022/10/21 01:07:49;;;;;;;17.65;10.30;;;14.70;99.90;;;;;;5051631;28;20179;-76
2022/10/21 01:10:14;;;;;;;22.52;9.95;;;14.70;99.90;;;;;;5051668;28;20033;-76
2022/10/21 01:12:50;;;;;;;22.55;10.95;;;14.70;99.90;;;;;;5051251;28;20064;-76
2022/10/21 01:15:22;;;;;;;18.52;9.73;;;14.70;99.90;;;;;;5051514;28;20033;-78
2022/10/21 01:18:12;;;;;;;22.23;9.70;;;14.70;99.90;;;;;;5051499;28;20043;-77
2022/10/21 01:21:04;;;;;;;15.40;9.50;;;14.80;99.90;;;;;;5051307;28;20021;-79
2022/10/21 01:23:35;;;;;;;19.27;10.50;;;14.80;99.90;;;;;;5048237;28;20041;-77
2022/10/21 01:26:28;;;;;;;17.40;9.88;;;14.80;99.90;;;;;;5051657;28;20466;-78
2022/10/21 01:29:15;;;;;;;16.65;9.20;;;14.80;99.90;;;;;;5051632;28;20048;-79
2022/10/21 01:32:07;;;;;;;16.80;9.57;;;14.80;99.90;;;;;;5051312;28;20025;-78
2022/10/21 01:34:48;;;;;;;20.25;9.30;;;14.70;99.90;;;;;;5066727;28;20029;-78
2022/10/21 01:37:26;;;;;;;16.25;9.25;;;14.80;99.90;;;;;;5070070;28;20036;-77
2022/10/21 01:40:01;;;;;;;;;;;14.80;99.90;;;;;;5071385;28;20064;-78
2022/10/21 01:42:37;;;;;;;16.73;9.98;;;14.80;99.90;;;;;;5069782;28;20344;-77
2022/10/21 01:45:13;;;;;;;21.60;9.40;;;14.90;99.90;;;;;;5070863;28;20374;-77
2022/10/21 01:47:46;;;;;;;16.33;9.45;;;14.80;99.90;;;;;;5070793;28;20451;-76
2022/10/21 01:50:25;;;;;;;16.73;9.80;;;14.80;99.90;;;;;;5071386;28;20100;-78
2022/10/21 01:52:56;;;;;;;15.38;9.43;;;14.80;99.90;;;;;;5070660;28;20336;-76
2022/10/21 01:55:26;;;;;;;15.52;9.70;;;14.80;99.90;;;;;;5069693;28;20370;-77
2022/10/21 01:57:59;;;;;;;18.55;9.68;;;14.80;99.90;;;;;;5070812;28;20415;-76
2022/10/21 02:00:25;;;;;;;24.30;10.90;;;14.80;99.90;;;;;;5069610;28;20040;-76
2022/10/21 02:02:51;;;;;;;20.05;9.05;;;14.80;99.90;;;;;;5060491;28;20044;-76
2022/10/21 02:05:24;;;;;;;20.13;9.98;;;14.80;99.90;;;;;;5070260;28;20154;-76
2022/10/21 02:07:50;;;;;;;14.73;8.45;;;14.80;99.90;;;;;;5070651;28;20042;-77
2022/10/21 02:10:17;;;;;;;17.90;9.70;;;14.80;99.90;;;;;;5070640;28;20116;-78
2022/10/21 02:12:46;;;;;;;16.13;9.50;;;14.80;99.90;;;;;;5069314;28;20417;-77
2022/10/21 02:15:14;;;;;;;16.60;9.25;;;14.80;99.90;;;;;;5070220;28;20025;-77
2022/10/21 02:17:43;;;;;;;20.97;9.43;;;14.80;99.90;;;;;;5070596;28;20047;-76
2022/10/21 02:20:11;;;;;;;18.65;9.65;;;14.70;99.90;;;;;;5070981;28;20369;-77
2022/10/21 02:22:39;;;;;;;16.17;10.00;;;14.80;99.90;;;;;;5070389;28;20052;-75
2022/10/21 02:25:15;;;;;;;14.10;9.68;;;14.80;99.90;;;;;;5070632;28;20035;-76
2022/10/21 02:27:41;;;;;;;15.63;7.85;;;14.80;99.90;;;;;;5070384;28;20025;-75
2022/10/21 02:30:07;;;;;;;11.85;7.93;;;14.80;99.90;;;;;;5070519;28;20029;-75
2022/10/21 02:33:18;;;;;;;13.48;8.98;;;14.80;99.90;;;;;;5069238;28;20101;-75
2022/10/21 02:36:15;;;;;;;13.30;8.25;;;14.70;99.90;;;;;;5031041;28;20463;-76
2022/10/21 02:38:48;;;;;;;16.73;8.67;;;14.70;99.90;;;;;;5035945;28;20037;-76
2022/10/21 02:41:19;;;;;;;14.93;8.43;;;14.70;99.90;;;;;;5065906;28;20044;-76
2022/10/21 02:43:52;;;;;;;16.00;8.50;;;14.70;99.90;;;;;;5070335;28;20041;-76
2022/10/21 02:46:18;;;;;;;14.88;9.00;;;14.70;99.90;;;;;;5070320;28;20120;-75
2022/10/21 02:48:46;;;;;;;16.92;9.02;;;14.70;99.90;;;;;;5072975;28;20174;-74
2022/10/21 02:51:13;;;;;;;14.23;8.60;;;14.70;99.90;;;;;;5074225;28;20240;-75
2022/10/21 02:53:39;;;;;;;24.13;8.23;;;14.70;99.90;;;;;;5074495;28;20028;-76
2022/10/21 02:56:06;;;;;;;12.52;8.80;;;14.70;99.90;;;;;;5074507;28;20028;-76
2022/10/21 02:58:33;;;;;;;18.05;10.15;;;14.80;99.90;;;;;;5074050;28;20040;-74
2022/10/21 03:00:58;;;;;;;15.60;7.82;;;14.70;99.90;;;;;;5072966;28;20036;-75
2022/10/21 03:03:24;;;;;;;16.40;8.85;;;14.70;99.90;;;;;;5073837;28;20091;-77
2022/10/21 03:05:50;;;;;;;17.42;9.48;;;14.70;99.90;;;;;;5072753;28;20028;-76
2022/10/21 03:08:17;;;;;;;14.93;8.18;;;14.70;99.90;;;;;;5074510;28;20029;-77
2022/10/21 03:10:43;;;;;;;13.23;8.98;;;14.70;99.90;;;;;;5072860;28;20120;-76
2022/10/21 03:13:08;;;;;;;14.02;8.73;;;14.70;99.90;;;;;;5073624;28;20618;-77
2022/10/21 03:15:34;;;;;;;13.23;8.45;;;14.70;99.90;;;;;;5073383;28;20037;-76
2022/10/21 03:18:00;;;;;;;16.90;9.23;;;14.70;99.90;;;;;;5073743;28;20404;-75
2022/10/21 03:20:26;;;;;;;17.38;9.25;;;14.70;99.90;;;;;;5074139;28;20040;-75
2022/10/21 03:22:51;;;;;;;18.55;8.40;;;14.70;99.90;;;;;;5072449;28;20115;-76
2022/10/21 03:25:17;;;;;;;15.48;9.13;;;14.70;99.90;;;;;;5073690;28;20028;-76
2022/10/21 03:27:43;;;;;;;14.77;8.77;;;14.70;99.90;;;;;;5073404;28;20392;-75
2022/10/21 03:30:09;;;;;;;12.15;8.40;;;14.70;99.90;;;;;;5072824;28;20355;-77
2022/10/21 03:32:35;;;;;;;23.33;9.27;;;14.70;99.90;;;;;;5073031;28;20036;-75
2022/10/21 03:35:01;;;;;;;19.70;8.30;;;14.80;99.90;;;;;;5073733;28;20046;-76
2022/10/21 03:37:27;;;;;;;16.27;8.52;;;14.80;99.90;;;;;;5073067;28;20090;-77
2022/10/21 03:39:52;;;;;;;13.30;9.15;;;14.80;99.90;;;;;;5073440;28;20055;-75
2022/10/21 03:42:18;;;;;;;16.33;8.60;;;14.80;99.90;;;;;;5073373;28;20458;-74
2022/10/21 03:44:43;;;;;;;13.77;9.05;;;14.80;99.90;;;;;;5073356;28;20029;-76
2022/10/21 03:47:09;;;;;;;13.02;8.27;;;14.80;99.90;;;;;;5073580;28;20025;-77
2022/10/21 03:49:35;;;;;;;12.80;8.40;;;14.80;99.90;;;;;;5071930;28;20098;-77
2022/10/21 03:52:01;;;;;;;14.57;8.88;;;14.90;99.90;;;;;;5073195;28;20032;-76
2022/10/21 03:54:26;;;;;;;20.75;8.98;;;14.90;99.90;;;;;;5072774;28;20047;-76
2022/10/21 03:56:52;;;;;;;13.93;8.25;;;14.90;99.90;;;;;;5070961;28;20170;-75
2022/10/21 03:59:17;;;;;;;11.73;8.20;;;14.90;99.90;;;;;;5071588;28;20032;-76
2022/10/21 04:01:43;;;;;;;11.40;7.95;;;14.90;99.90;;;;;;5072891;28;20371;-77
2022/10/21 04:04:09;;;;;;;12.82;8.05;;;14.90;99.90;;;;;;5072972;28;20047;-75
2022/10/21 04:06:35;;;;;;;16.23;9.43;;;14.90;99.90;;;;;;5072983;28;20549;-76
2022/10/21 04:09:01;;;;;;;14.85;8.48;;;15.00;99.90;;;;;;5071125;28;20039;-76
2022/10/21 04:11:26;;;;;;;12.93;7.88;;;15.00;99.90;;;;;;5073783;28;20028;-75
2022/10/21 04:13:52;;;;;;;18.75;8.55;;;15.00;99.90;;;;;;5072864;28;20040;-76
2022/10/21 04:16:19;;;;;;;13.20;8.25;;;15.00;99.90;;;;;;5072325;28;20032;-76
2022/10/21 04:18:46;;;;;;;16.05;7.95;;;15.00;99.90;;;;;;5073214;28;20033;-77
2022/10/21 04:21:11;;;;;;;22.25;9.18;;;15.00;99.90;;;;;;5072826;28;20090;-78
2022/10/21 04:23:37;;;;;;;16.65;8.80;;;15.00;99.90;;;;;;5071514;28;20032;-78
2022/10/21 04:26:04;;;;;;;19.77;8.52;;;15.00;99.90;;;;;;5073303;28;20031;-76
2022/10/21 04:28:30;;;;;;;13.82;8.48;;;15.00;99.90;;;;;;5072648;28;20028;-79
2022/10/21 04:30:56;;;;;;;13.68;8.50;;;15.00;99.90;;;;;;5072608;28;20040;-77
2022/10/21 04:33:22;;;;;;;12.90;7.80;;;15.00;99.90;;;;;;5072379;28;20484;-75
2022/10/21 04:35:47;;;;;;;16.35;9.00;;;15.00;99.90;;;;;;5072352;28;20047;-76
2022/10/21 04:38:13;;;;;;;16.45;8.27;;;15.00;99.90;;;;;;5071706;28;20130;-78
2022/10/21 04:40:39;;;;;;;15.23;8.57;;;15.00;99.90;;;;;;5072579;28;20021;-76
2022/10/21 04:43:05;;;;;;;17.13;8.82;;;15.00;99.90;;;;;;5070862;28;20064;-75
2022/10/21 04:45:30;;;;;;;22.73;10.15;;;15.00;99.90;;;;;;5072394;28;20044;-76
2022/10/21 04:47:56;;;;;;;24.42;10.40;;;15.00;99.90;;;;;;5072320;28;20478;-76
2022/10/21 04:50:22;;;;;;;16.95;9.23;;;15.00;99.90;;;;;;5071672;28;20307;-77
2022/10/21 04:52:48;;;;;;;21.45;9.68;;;15.00;99.90;;;;;;5072201;28;20032;-78
2022/10/21 04:55:14;;;;;;;15.60;8.98;;;15.00;99.90;;;;;;5072075;28;20043;-77
2022/10/21 04:57:41;;;;;;;16.38;9.10;;;15.00;99.90;;;;;;5072044;28;20398;-77
2022/10/21 05:00:07;;;;;;;14.25;8.80;;;15.00;99.90;;;;;;5072287;28;20177;-78
2022/10/21 05:02:33;;;;;;;18.33;9.13;;;15.00;99.90;;;;;;5071870;28;20035;-78
2022/10/21 05:04:59;;;;;;;13.00;8.23;;;14.90;99.90;;;;;;5072093;28;20417;-76
2022/10/21 05:07:24;;;;;;;17.00;9.02;;;14.90;99.90;;;;;;5071726;28;20179;-76
2022/10/21 05:09:50;;;;;;;15.88;8.88;;;15.00;99.90;;;;;;5071308;28;20032;-77
2022/10/21 05:12:15;;;;;;;14.60;8.88;;;14.90;99.90;;;;;;5071444;28;20386;-77
2022/10/21 05:14:41;;;;;;;13.25;8.50;;;14.90;99.90;;;;;;5071366;28;20089;-78
2022/10/21 05:17:07;;;;;;;12.95;8.90;;;14.90;99.90;;;;;;5072291;28;20078;-77
2022/10/21 05:19:33;;;;;;;14.77;8.57;;;14.90;99.90;;;;;;5070186;28;20048;-77
2022/10/21 05:21:58;;;;;;;14.07;8.98;;;14.90;99.90;;;;;;5071837;28;20028;-76
2022/10/21 05:24:24;;;;;;;13.48;8.60;;;14.80;99.90;;;;;;5070350;28;20123;-76
2022/10/21 05:26:50;;;;;;;16.95;9.23;;;14.80;99.90;;;;;;5071564;28;20032;-77
2022/10/21 05:29:17;;;;;;;11.88;8.40;;;14.80;99.90;;;;;;5071896;28;20020;-76
2022/10/21 05:31:42;;;;;;;14.10;8.05;;;14.80;99.90;;;;;;5071377;28;20036;-78
2022/10/21 05:34:08;;;;;;;13.80;8.73;;;14.80;99.90;;;;;;5071327;28;20105;-78
2022/10/21 05:36:34;;;;;;;17.67;9.05;;;14.80;99.90;;;;;;5070176;28;20089;-78
2022/10/21 05:39:00;;;;;;;15.95;9.27;;;14.80;99.90;;;;;;5071392;28;20123;-77
2022/10/21 05:41:26;;;;;;;14.07;8.73;;;14.80;99.90;;;;;;5071995;28;20032;-77
2022/10/21 05:43:51;;;;;;;14.75;8.50;;;14.80;99.90;;;;;;5071428;28;20025;-78
2022/10/21 05:46:17;;;;;;;18.83;8.85;;;14.80;99.90;;;;;;5071347;28;20054;-77
2022/10/21 05:48:42;;;;;;;14.55;8.43;;;14.80;99.90;;;;;;5071696;28;20365;-77
2022/10/21 05:51:08;;;;;;;16.88;8.75;;;14.80;99.90;;;;;;5071402;28;20025;-76
2022/10/21 05:53:34;;;;;;;11.07;8.55;;;14.80;99.90;;;;;;5070884;28;20020;-77
2022/10/21 05:56:08;;;;;;;12.95;8.13;;;14.80;99.90;;;;;;5071586;28;20461;-77
2022/10/21 05:58:34;;;;;;;23.00;8.18;;;14.80;99.90;;;;;;5070942;28;20194;-78
2022/10/21 06:01:00;;;;;;;14.57;8.15;;;14.80;99.90;;;;;;5070969;28;20450;-79
2022/10/21 06:03:31;;;;;;;16.00;9.40;;;14.80;99.90;;;;;;5071123;28;20619;-79
2022/10/21 06:05:58;;;;;;;15.07;9.00;;;14.80;99.90;;;;;;5070444;28;20183;-80
2022/10/21 06:08:24;;;;;;;51.08;29.60;;;14.80;99.90;;;;;;5071727;28;20021;-79
2022/10/21 06:11:15;;;;;;;47.80;28.95;;;14.90;99.90;;;;;;5071069;28;20656;-78
2022/10/21 06:13:42;;;;;;;16.83;10.85;;;14.80;99.90;;;;;;5070913;28;20056;-78
2022/10/21 06:16:09;;;;;;;15.88;8.95;;;14.90;99.90;;;;;;5070144;28;20518;-79
2022/10/21 06:18:35;;;;;;;16.53;9.10;;;14.90;99.90;;;;;;5071301;28;20129;-82
2022/10/21 06:21:00;;;;;;;18.35;9.52;;;14.90;99.90;;;;;;5071402;28;20052;-82
2022/10/21 06:23:26;;;;;;;21.65;11.05;;;14.90;99.90;;;;;;5071861;28;20036;-82
2022/10/21 06:26:06;;;;;;;19.85;12.30;;;14.90;99.90;;;;;;5072794;28;20029;-83
2022/10/21 06:28:35;;;;;;;20.58;12.05;;;14.90;99.90;;;;;;5070680;28;20108;-80
2022/10/21 06:31:01;;;;;;;25.98;12.50;;;14.90;99.90;;;;;;5069906;28;20107;-82
2022/10/21 06:33:27;;;;;;;18.15;11.40;;;15.00;99.90;;;;;;5071388;28;20036;-79
2022/10/21 06:35:53;;;;;;;20.95;11.27;;;15.00;99.90;;;;;;5070783;28;20101;-79
2022/10/21 06:38:19;;;;;;;15.68;8.15;;;15.00;99.90;;;;;;5070267;28;20032;-80
2022/10/21 06:40:45;;;;;;;15.13;8.43;;;15.00;99.90;;;;;;5070730;28;20035;-77
2022/10/21 06:43:10;;;;;;;12.00;8.40;;;15.00;99.90;;;;;;5058054;28;20155;-78
2022/10/21 06:45:36;;;;;;;15.48;8.32;;;15.00;99.90;;;;;;5050292;28;20033;-79
2022/10/21 06:48:02;;;;;;;19.15;8.57;;;15.10;99.90;;;;;;5066627;28;20422;-79
2022/10/21 06:50:28;;;;;;;14.20;8.25;;;15.10;99.90;;;;;;5051424;28;20064;-80
2022/10/21 06:52:54;;;;;;;13.85;8.02;;;15.10;99.90;;;;;;5051577;28;20033;-79
2022/10/21 06:55:20;;;;;;;14.32;8.02;;;15.10;99.90;;;;;;5066788;28;20036;-78
2022/10/21 06:57:46;;;;;;;10.57;7.72;;;15.20;99.90;;;;;;5050837;28;20029;-77
2022/10/21 07:00:13;;;;;;;17.63;9.85;;;15.10;99.90;;;;;;5050764;28;20112;-80
2022/10/21 07:02:38;;;;;;;22.88;12.10;;;15.20;99.90;;;;;;5050367;28;20033;-80
2022/10/21 07:05:05;;;;;;;14.60;8.90;;;15.20;99.90;;;;;;5051068;28;20032;-81
2022/10/21 07:07:30;;;;;;;18.80;8.13;;;15.20;99.90;;;;;;5066661;28;20036;-82
2022/10/21 07:09:56;;;;;;;13.20;7.63;;;15.20;99.90;;;;;;5051188;28;20094;-80
2022/10/21 07:12:23;;;;;;;12.80;7.43;;;15.30;99.90;;;;;;5050457;28;20128;-80
2022/10/21 07:14:49;;;;;;;13.77;7.80;;;15.30;99.90;;;;;;5066181;28;20465;-79
2022/10/21 07:17:15;;;;;;;14.57;7.75;;;15.40;99.90;;;;;;5051034;28;20021;-78
2022/10/21 07:19:41;;;;;;;18.33;8.40;;;15.40;99.90;;;;;;5050852;28;20112;-83
2022/10/21 07:22:07;;;;;;;17.75;8.05;;;15.40;99.90;;;;;;5051196;28;20115;-76
2022/10/21 07:24:34;;;;;;;13.35;7.75;;;15.40;99.90;;;;;;5069028;28;20355;-78
2022/10/21 07:27:00;;;;;;;13.10;7.60;;;15.50;99.90;;;;;;5069428;28;20405;-79
2022/10/21 07:29:26;;;;;;;12.27;8.00;;;15.50;99.90;;;;;;5069900;28;20029;-78
2022/10/21 07:31:52;;;;;;;14.98;7.88;;;15.50;99.90;;;;;;5071917;28;20051;-80
2022/10/21 07:34:18;;;;;;;16.02;8.23;;;15.50;99.90;;;;;;5070819;28;20032;-79
2022/10/21 07:36:51;;;;;;;13.90;7.93;;;15.60;99.90;;;;;;5073062;28;20112;-81
2022/10/21 07:39:20;;;;;;;18.48;8.25;;;15.60;99.90;;;;;;5074090;28;20028;-81
2022/10/21 07:41:51;;;;;;;12.00;7.10;;;15.60;99.90;;;;;;5073244;28;20028;-81
2022/10/21 07:44:19;;;;;;;14.60;7.95;;;15.60;99.90;;;;;;5074830;28;20490;-77
2022/10/21 07:46:46;;;;;;;11.57;8.77;;;15.70;99.90;;;;;;5074253;28;20056;-79
2022/10/21 07:49:13;;;;;;;15.63;9.05;;;15.70;99.90;;;;;;5074005;28;20536;-80
2022/10/21 07:51:39;;;;;;;14.48;8.07;;;15.70;99.90;;;;;;5074061;28;20101;-80
2022/10/21 07:54:06;;;;;;;14.48;7.25;;;15.70;99.90;;;;;;5074107;28;20029;-77
2022/10/21 07:56:35;;;;;;;10.63;7.22;;;15.70;99.90;;;;;;5073950;28;20086;-81
2022/10/21 07:59:01;;;;;;;17.35;9.45;;;15.80;99.90;;;;;;5074157;28;20024;-82
2022/10/21 08:01:27;;;;;;;13.90;8.02;;;15.80;99.90;;;;;;5074372;28;20123;-80
2022/10/21 08:03:54;;;;;;;13.82;7.05;;;15.90;99.90;;;;;;5074215;28;20101;-82
2022/10/21 08:06:21;;;;;;;13.85;8.10;;;15.90;99.90;;;;;;5086573;28;20025;-81
2022/10/21 08:08:46;;;;;;;15.13;6.95;;;15.90;99.90;;;;;;5083256;28;20031;-81
2022/10/21 08:11:24;;;;;;;13.77;7.10;;;15.90;99.90;;;;;;5086337;28;20025;-78
2022/10/21 08:13:50;;;;;;;14.02;6.68;;;16.00;99.90;;;;;;5083742;28;20048;-81
2022/10/21 08:16:15;;;;;;;20.55;11.82;;;16.10;99.90;;;;;;5078056;28;20042;-78
2022/10/21 08:18:41;;;;;;;20.48;8.32;;;16.10;99.90;;;;;;5071700;28;20097;-77
2022/10/21 08:21:07;;;;;;;13.07;7.85;;;16.10;99.90;;;;;;5071624;28;20033;-80
2022/10/21 08:23:33;;;;;;;9.95;6.82;;;16.10;99.90;;;;;;5072653;28;20454;-77
2022/10/21 08:26:01;;;;;;;13.07;6.55;;;16.20;99.90;;;;;;5073215;28;20192;-72
2022/10/21 08:28:29;;;;;;;13.48;6.40;;;16.20;99.90;;;;;;5072615;28;20496;-74
2022/10/21 08:31:06;;;;;;;11.30;6.45;;;16.20;99.90;;;;;;5072441;28;20029;-76
2022/10/21 08:33:33;;;;;;;16.83;6.18;;;16.20;99.90;;;;;;5072358;28;20064;-78
2022/10/21 08:36:03;;;;;;;12.02;6.15;;;16.20;99.90;;;;;;5072584;28;20103;-76
2022/10/21 08:38:28;;;;;;;13.35;6.10;;;16.30;99.90;;;;;;5072694;28;20353;-73
2022/10/21 08:40:54;;;;;;;6.55;5.35;;;16.40;99.90;;;;;;5071782;28;20021;-78
2022/10/21 08:43:27;;;;;;;12.00;6.43;;;16.40;99.90;;;;;;5072466;28;20108;-76
2022/10/21 08:45:59;;;;;;;10.55;7.03;;;16.50;99.90;;;;;;5068436;28;20143;-76
2022/10/21 08:48:49;;;;;;;15.20;7.50;;;16.50;99.90;;;;;;5052456;28;20739;-81
2022/10/21 08:51:24;;;;;;;10.10;6.60;;;16.60;99.90;;;;;;5060475;28;20033;-77
2022/10/21 08:53:52;;;;;;;12.02;6.50;;;16.70;99.90;;;;;;5059227;28;20057;-79
2022/10/21 08:56:18;;;;;;;14.93;6.05;;;16.70;99.90;;;;;;5053169;28;20469;-76
2022/10/21 08:58:46;;;;;;;11.25;5.85;;;16.80;99.90;;;;;;5052571;28;20108;-76
2022/10/21 09:01:19;;;;;;;13.40;6.43;;;16.90;99.90;;;;;;5052451;28;20095;-76
2022/10/21 09:04:01;;;;;;;10.38;6.15;;;16.90;99.90;;;;;;5052210;28;20443;-76
2022/10/21 09:07:07;;;;;;;11.57;6.10;;;16.90;99.90;;;;;;5051522;28;20037;-78
2022/10/21 09:09:52;;;;;;;11.35;5.05;;;16.90;99.90;;;;;;5051736;28;20025;-76
2022/10/21 09:12:52;;;;;;;12.88;5.72;;;17.00;99.90;;;;;;5051442;28;20140;-81
2022/10/21 09:15:58;;;;;;;9.15;5.32;;;17.10;99.90;;;;;;5067495;28;20094;-80
2022/10/21 09:18:53;;;;;;;12.70;5.82;;;17.20;99.90;;;;;;5006540;28;20025;-82
2022/10/21 09:22:02;;;;;;;9.88;5.35;;;17.30;99.90;;;;;;5038511;28;20099;-76
2022/10/21 09:24:35;;;;;;;12.25;5.85;;;17.40;99.90;;;;;;5051501;28;20033;-79
2022/10/21 09:27:03;;;;;;;7.70;5.20;;;17.40;99.90;;;;;;5067541;28;20163;-79
2022/10/21 09:29:36;;;;;;;11.13;7.28;;;17.50;99.90;;;;;;5067045;28;20035;-79
2022/10/21 09:32:17;;;;;;;11.75;6.25;;;17.60;99.90;;;;;;5068049;28;20543;-79
2022/10/21 09:34:58;;;;;;;15.82;8.93;;;17.70;99.90;;;;;;5052387;28;20029;-79
2022/10/21 09:38:06;;;;;;;17.45;5.57;;;17.80;99.90;;;;;;5051305;28;20041;-82
2022/10/21 09:40:32;;;;;;;11.25;5.45;;;18.00;99.90;;;;;;4989637;28;20030;-77
2022/10/21 09:43:00;;;;;;;9.32;4.97;;;18.30;99.90;;;;;;5050339;28;20032;-78
2022/10/21 09:45:37;;;;;;;19.33;4.60;;;18.50;99.90;;;;;;5051028;28;20044;-79
2022/10/21 09:48:17;;;;;;;9.17;4.30;;;18.70;99.90;;;;;;5049956;28;20522;-77
2022/10/21 09:50:51;;;;;;;7.30;4.80;;;18.90;99.90;;;;;;5051408;28;20723;-76
2022/10/21 09:53:22;;;;;;;7.32;4.68;;;19.10;99.90;;;;;;5051421;28;20064;-78
2022/10/21 09:55:51;;;;;;;9.35;4.43;;;19.10;99.90;;;;;;5051458;28;20033;-77
2022/10/21 09:58:36;;;;;;;9.93;4.05;;;19.20;99.90;;;;;;5050278;28;20097;-79
2022/10/21 10:01:03;;;;;;;8.85;4.72;;;19.10;99.90;;;;;;5050704;28;20037;-77
2022/10/21 10:03:34;;;;;;;10.30;4.50;;;19.00;99.90;;;;;;5050645;28;20052;-79
2022/10/21 10:06:01;;;;;;;11.73;4.82;;;18.90;99.90;;;;;;5050687;28;20033;-78
2022/10/21 10:08:43;;;;;;;10.88;5.18;;;18.90;99.90;;;;;;5051073;28;20033;-78
2022/10/21 10:11:08;;;;;;;8.27;4.45;;;18.90;99.90;;;;;;5050611;28;20117;-80
2022/10/21 10:13:41;;;;;;;8.68;4.63;;;18.90;99.90;;;;;;5066079;28;20132;-79
2022/10/21 10:16:31;;;;;;;16.42;7.10;;;18.80;99.90;;;;;;5050680;28;20033;-81
2022/10/21 10:19:19;;;;;;;7.68;4.30;;;18.80;99.90;;;;;;5050809;28;20076;-79
2022/10/21 10:21:50;;;;;;;38.83;18.85;;;18.80;99.90;;;;;;5066514;28;20033;-79
2022/10/21 10:24:20;;;;;;;16.20;6.40;;;18.70;99.90;;;;;;5066359;28;20037;-79
2022/10/21 10:26:47;;;;;;;10.40;4.03;;;18.70;99.90;;;;;;5050469;28;20123;-80
2022/10/21 10:29:15;;;;;;;13.63;4.90;;;18.70;99.90;;;;;;5066483;28;20025;-80
2022/10/21 10:31:50;;;;;;;10.88;4.00;;;18.60;99.90;;;;;;5050673;28;20111;-80
2022/10/21 10:34:58;;;;;;;8.68;4.70;;;18.60;99.90;;;;;;5050173;28;20052;-80
2022/10/21 10:37:26;;;;;;;10.00;4.47;;;18.50;99.90;;;;;;5028756;28;20112;-79
2022/10/21 10:39:56;;;;;;;12.30;5.78;;;18.50;99.90;;;;;;5050392;28;20377;-79
2022/10/21 10:42:31;;;;;;;12.98;6.13;;;18.40;99.90;;;;;;5049239;28;20029;-80
2022/10/21 10:45:01;;;;;;;14.65;5.60;;;18.40;99.90;;;;;;5065691;28;20036;-80
2022/10/21 10:47:38;;;;;;;10.63;5.53;;;18.40;99.90;;;;;;5066396;28;20040;-80
2022/10/21 10:50:04;;;;;;;12.90;4.80;;;18.40;99.90;;;;;;5050375;28;20049;-78
2022/10/21 10:52:30;;;;;;;10.27;4.30;;;18.30;99.90;;;;;;5066189;28;20099;-86
2022/10/21 10:55:11;;;;;;;9.93;5.05;;;18.30;99.90;;;;;;5049830;28;20502;-81
2022/10/21 10:57:39;;;;;;;7.90;4.72;;;18.30;99.90;;;;;;5050732;28;20067;-82
2022/10/21 11:00:23;;;;;;;14.18;6.55;;;18.30;99.90;;;;;;5050843;28;20037;-84
2022/10/21 11:02:58;;;;;;;10.75;4.05;;;18.30;99.90;;;;;;5049429;28;20025;-80
2022/10/21 11:05:36;;;;;;;8.27;4.13;;;18.30;99.90;;;;;;5051522;28;20056;-82
2022/10/21 11:08:20;;;;;;;;;;;18.30;99.90;;;;;;5051266;28;20116;-79
2022/10/21 11:10:53;;;;;;;11.27;5.00;;;18.10;99.90;;;;;;5069862;28;19912;-83
2022/10/21 11:13:22;;;;;;;10.60;4.75;;;18.20;99.90;;;;;;5044817;28;20103;-86
2022/10/21 11:16:12;;;;;;;6.82;4.50;;;18.10;99.90;;;;;;5054144;28;20041;-84
2022/10/21 11:18:50;;;;;;;8.40;4.63;;;18.20;99.90;;;;;;5054286;28;20161;-78
2022/10/21 11:21:34;;;;;;;12.50;4.80;;;18.10;99.90;;;;;;5054111;28;20564;-82
2022/10/21 11:24:37;;;;;;;13.43;4.45;;;18.10;99.90;;;;;;5053994;28;20378;-76
2022/10/21 11:27:31;;;;;;;11.05;5.53;;;17.90;99.90;;;;;;5069620;28;20033;-75
2022/10/21 11:30:16;;;;;;;12.43;4.72;;;17.90;99.90;;;;;;5053382;28;20043;-72
2022/10/21 11:33:02;;;;;;;9.40;4.43;;;18.00;99.90;;;;;;5053344;28;20043;-73
2022/10/21 11:35:43;;;;;;;9.63;4.60;;;18.00;99.90;;;;;;5052963;28;20025;-72
2022/10/21 11:38:37;;;;;;;9.77;4.50;;;18.00;99.90;;;;;;5053992;28;20036;-75
2022/10/21 11:41:26;;;;;;;8.82;4.30;;;18.00;99.90;;;;;;5053366;28;20040;-76
2022/10/21 11:44:18;;;;;;;15.40;7.22;;;18.00;99.90;;;;;;5053328;28;20120;-74
2022/10/21 11:46:56;;;;;;;11.80;5.75;;;18.00;99.90;;;;;;5053224;28;20021;-75
2022/10/21 11:49:43;;;;;;;12.13;4.47;;;18.10;99.90;;;;;;5053337;28;20112;-76
2022/10/21 11:52:35;;;;;;;10.38;4.65;;;18.00;99.90;;;;;;5053038;28;20060;-74
2022/10/21 11:55:24;;;;;;;9.93;4.80;;;18.00;99.90;;;;;;5052206;28;20086;-76
2022/10/21 11:58:10;;;;;;;7.25;4.47;;;18.00;99.90;;;;;;5053790;28;20603;-76
2022/10/21 12:01:11;;;;;;;10.75;5.35;;;18.00;99.90;;;;;;5053248;28;20037;-74
2022/10/21 12:03:48;;;;;;;15.13;5.93;;;18.00;99.90;;;;;;5068473;28;20104;-75
2022/10/21 12:06:37;;;;;;;11.27;4.70;;;18.00;99.90;;;;;;5068539;28;20037;-72
2022/10/21 12:09:29;;;;;;;7.65;4.13;;;18.00;99.90;;;;;;5052749;28;20028;-73
2022/10/21 12:12:09;;;;;;;12.75;4.68;;;18.00;99.90;;;;;;5025392;28;20017;-75
2022/10/21 12:15:03;;;;;;;13.68;5.07;;;18.00;99.90;;;;;;5053193;28;20043;-73
2022/10/21 12:17:33;;;;;;;11.45;5.25;;;18.00;99.90;;;;;;5052864;28;20406;-76
2022/10/21 12:20:01;;;;;;;14.77;5.40;;;17.90;99.90;;;;;;5052521;28;20029;-73
2022/10/21 12:22:27;;;;;;;;;;;17.90;99.90;;;;;;5053096;28;20108;-74
2022/10/21 12:25:11;;;;;;;7.95;4.78;;;17.90;99.90;;;;;;5052515;28;19920;-75
2022/10/21 12:27:40;;;;;;;11.80;4.80;;;17.90;99.90;;;;;;5068258;28;20024;-78
2022/10/21 12:30:22;;;;;;;13.95;4.90;;;17.90;99.90;;;;;;5052815;28;20047;-80
2022/10/21 12:33:12;;;;;;;11.05;4.97;;;17.80;99.90;;;;;;5051995;28;20060;-82
2022/10/21 12:35:52;;;;;;;14.73;7.40;;;17.80;99.90;;;;;;5053075;28;20051;-79
2022/10/21 12:38:57;;;;;;;11.40;5.13;;;17.80;99.90;;;;;;5068517;28;20187;-81
2022/10/21 12:41:22;;;;;;;12.20;4.75;;;17.80;99.90;;;;;;4991133;28;20448;-81
2022/10/21 12:44:20;;;;;;;14.15;5.40;;;17.80;99.90;;;;;;4991786;28;20041;-82
2022/10/21 12:46:50;;;;;;;12.30;5.03;;;17.80;99.90;;;;;;5026206;28;20116;-75
2022/10/21 12:49:23;;;;;;;16.52;5.13;;;17.80;99.90;;;;;;5052293;28;20060;-76
2022/10/21 12:51:57;;;;;;;16.17;5.75;;;17.70;99.90;;;;;;5052257;28;20029;-74
2022/10/21 12:54:48;;;;;;;10.10;5.55;;;17.80;99.90;;;;;;5052778;28;20043;-78
2022/10/21 12:57:31;;;;;;;11.50;6.07;;;17.80;99.90;;;;;;5041218;28;20037;-76
2022/10/21 13:00:35;;;;;;;17.00;5.53;;;17.80;99.90;;;;;;5051982;28;20025;-77
2022/10/21 13:03:38;;;;;;;10.50;5.55;;;17.80;99.90;;;;;;5051715;28;20118;-77